createdAt,value
2022-12-13T00:00:40.726Z,51.2
2022-12-13T00:06:04.777Z,51.2
2022-12-13T00:11:42.743Z,51.2
2022-12-13T00:17:21.205Z,51.1
2022-12-13T00:22:58.878Z,51.1
2022-12-13T00:28:43.581Z,51
2022-12-13T00:35:04.223Z,51
2022-12-13T00:40:26.337Z,50.9
2022-12-13T00:46:05.344Z,50.9
2022-12-13T00:51:43.504Z,50.9
2022-12-13T00:57:20.895Z,50.9
2022-12-13T01:02:50.383Z,50.8
2022-12-13T01:09:05.822Z,50.8
2022-12-13T01:14:44.079Z,50.8
2022-12-13T01:20:22.407Z,50.7
2022-12-13T01:26:02.464Z,50.7
2022-12-13T01:31:29.066Z,50.6
2022-12-13T01:37:18.156Z,50.6
2022-12-13T01:43:47.958Z,50.6
2022-12-13T01:49:36.713Z,50.5
2022-12-13T01:55:27.044Z,50.5
2022-12-13T02:00:57.524Z,50.4
2022-12-13T02:06:17.015Z,50.4
2022-12-13T02:12:00.291Z,50.4
2022-12-13T02:17:45.913Z,51.6
2022-12-13T02:23:29.800Z,53.1
2022-12-13T02:29:47.870Z,54.8
2022-12-13T02:35:26.529Z,56.5
2022-12-13T02:41:17.191Z,58.1
2022-12-13T02:47:22.333Z,58.6
2022-12-13T02:53:01.964Z,58.6
2022-12-13T03:09:49.990Z,58.5
2022-12-13T03:15:13.858Z,58.4
2022-12-13T03:20:39.372Z,58.4
2022-12-13T03:26:21.687Z,58.4
2022-12-13T03:32:00.844Z,58.4
2022-12-13T03:38:21.307Z,58.3
2022-12-13T03:44:01.356Z,58.3
2022-12-13T03:49:54.163Z,58.3
2022-12-13T03:55:51.327Z,58.2
2022-12-13T04:01:42.316Z,58.1
2022-12-13T04:07:39.043Z,58.1
2022-12-13T04:13:54.238Z,58.1
2022-12-13T04:19:22.801Z,58
2022-12-13T04:25:06.774Z,57.9
2022-12-13T04:30:43.705Z,57.9
2022-12-13T04:36:09.184Z,57.9
2022-12-13T04:41:18.319Z,57.8
2022-12-13T04:47:04.953Z,57.8
2022-12-13T04:58:07.797Z,57.7
2022-12-13T05:03:46.992Z,57.6
2022-12-13T05:09:11.277Z,57.6
2022-12-13T05:15:31.104Z,57.6
2022-12-13T05:21:03.264Z,57.5
2022-12-13T05:26:48.016Z,57.5
2022-12-13T05:32:47.569Z,57.4
2022-12-13T05:38:44.044Z,57.4
2022-12-13T05:44:49.517Z,57.3
2022-12-13T05:49:56.524Z,57.3
2022-12-13T05:55:39.043Z,57.3
2022-12-13T06:01:36.571Z,57.2
2022-12-13T06:07:30.271Z,57.1
2022-12-13T06:15:22.140Z,57.1
2022-12-13T06:21:13.803Z,57.1
2022-12-13T06:26:42.357Z,57
2022-12-13T06:32:51.289Z,56.9
2022-12-13T06:39:04.400Z,56.9
2022-12-13T06:44:41.956Z,56.8
2022-12-13T06:50:39.111Z,56.8
2022-12-13T06:56:29.934Z,56.8
2022-12-13T07:02:42.062Z,56.7
2022-12-13T07:08:55.681Z,56.6
2022-12-13T07:14:43.602Z,56.6
2022-12-13T07:20:33.796Z,56.6
2022-12-13T07:26:49.968Z,56.5
2022-12-13T07:32:34.922Z,56.4
2022-12-13T07:38:35.007Z,56.4
2022-12-13T07:44:19.488Z,56.4
2022-12-13T07:50:13.904Z,56.3
2022-12-13T07:56:22.028Z,56.3
2022-12-13T08:02:10.599Z,56.2
2022-12-13T08:08:18.294Z,56.2
2022-12-13T08:13:45.624Z,56.1
2022-12-13T08:19:54.205Z,56.1
2022-12-13T08:26:33.732Z,56
2022-12-13T08:32:26.122Z,56
2022-12-13T08:38:11.073Z,55.9
2022-12-13T08:43:59.867Z,55.9
2022-12-13T08:49:50.820Z,55.8
2022-12-13T08:55:48.789Z,55.8
2022-12-13T09:01:26.550Z,55.7
2022-12-13T09:07:35.208Z,55.6
2022-12-13T09:14:45.116Z,55.6
2022-12-13T09:21:48.505Z,55.5
2022-12-13T09:28:34.382Z,55.4
2022-12-13T09:34:35.723Z,55.4
2022-12-13T09:40:41.812Z,55.4
2022-12-13T09:48:30.229Z,55.3
2022-12-13T09:55:46.466Z,55.3
2022-12-13T10:01:56.713Z,55.2
2022-12-13T10:07:47.199Z,55.1
2022-12-13T10:13:33.425Z,55.1
2022-12-13T10:19:46.219Z,55.1
2022-12-13T10:26:57.515Z,55
2022-12-13T10:32:54.550Z,54.9
2022-12-13T10:38:32.586Z,54.9
2022-12-13T10:44:15.067Z,54.8
2022-12-13T10:50:15.553Z,54.8
2022-12-13T10:56:40.313Z,54.8
2022-12-13T11:02:35.356Z,54.9
2022-12-13T11:08:17.355Z,54.9
2022-12-13T11:14:33.073Z,54.9
2022-12-13T11:20:15.237Z,55.1
2022-12-13T11:26:03.329Z,55.3
2022-12-13T11:32:09.358Z,55.3
2022-12-13T11:37:48.297Z,55.3
2022-12-13T11:43:14.354Z,55.6
2022-12-13T11:49:04.100Z,55.7
2022-12-13T11:54:40.722Z,55.7
2022-12-13T12:01:24.084Z,55.7
2022-12-13T12:08:05.595Z,55.8
2022-12-13T12:13:50.651Z,56
2022-12-13T12:20:07.776Z,56
2022-12-13T12:26:22.699Z,55.9
2022-12-13T12:32:24.102Z,55.9
2022-12-13T12:38:09.235Z,55.9
2022-12-13T12:44:37.934Z,55.9
2022-12-13T12:52:45.463Z,55.8
2022-12-13T12:58:34.626Z,55.8
2022-12-13T13:04:39.472Z,55.8
2022-12-13T13:11:06.399Z,55.8
2022-12-13T13:17:31.959Z,55.7
2022-12-13T13:24:13.292Z,55.6
2022-12-13T13:30:34.357Z,55.6
2022-12-13T13:36:28.591Z,55.6
2022-12-13T13:42:10.738Z,55.5
2022-12-13T13:47:54.153Z,55.5
2022-12-13T13:54:10.081Z,55.4
2022-12-13T14:00:11.365Z,55.4
2022-12-13T14:05:48.424Z,55.3
2022-12-13T14:11:45.408Z,55.3
2022-12-13T14:17:44.186Z,55.3
2022-12-13T14:23:13.087Z,55.3
2022-12-13T14:28:45.226Z,55.2
2022-12-13T14:35:42.491Z,55.1
2022-12-13T14:41:27.546Z,55.1
2022-12-13T14:47:21.129Z,55.1
2022-12-13T14:53:16.632Z,55
2022-12-13T14:59:03.917Z,54.9
2022-12-13T15:04:51.852Z,54.9
2022-12-13T15:10:51.839Z,54.9
2022-12-13T15:17:01.481Z,54.8
2022-12-13T15:22:35.484Z,54.8
2022-12-13T15:28:38.512Z,54.8
2022-12-13T15:34:44.855Z,54.7
2022-12-13T15:40:53.615Z,54.7
2022-12-13T15:46:26.027Z,54.6
2022-12-13T15:52:20.289Z,54.6
2022-12-13T15:58:10.654Z,54.5
2022-12-13T16:03:43.011Z,54.5
2022-12-13T16:09:37.210Z,54.4
2022-12-13T16:15:48.276Z,54.4
2022-12-13T16:21:32.976Z,54.4
2022-12-13T16:27:41.447Z,54.3
2022-12-13T16:34:00.225Z,54.3
2022-12-13T16:40:10.774Z,54.3
2022-12-13T16:47:41.643Z,54.2
2022-12-13T16:53:34.106Z,54.1
2022-12-13T16:59:07.131Z,54.1
2022-12-13T17:04:36.512Z,54.1
2022-12-13T17:10:13.929Z,54
2022-12-13T17:16:16.241Z,53.9
2022-12-13T17:22:04.244Z,53.9
2022-12-13T17:28:01.393Z,53.9
2022-12-13T17:33:20.573Z,53.8
2022-12-13T17:39:01.232Z,53.8
2022-12-13T17:44:41.566Z,53.8
2022-12-13T17:50:21.512Z,53.7
2022-12-13T17:56:08.283Z,53.6
2022-12-13T18:01:31.995Z,53.6
2022-12-13T18:06:42.713Z,53.6
2022-12-13T18:13:03.822Z,53.6
2022-12-13T18:19:44.045Z,53.5
2022-12-13T18:25:19.806Z,53.4
2022-12-13T18:31:01.536Z,53.4
2022-12-13T18:36:39.646Z,53.4
2022-12-13T18:42:29.237Z,53.3
2022-12-13T18:48:10.587Z,53.3
2022-12-13T18:53:25.686Z,53.3
2022-12-13T18:58:55.034Z,53.2
2022-12-13T19:04:55.552Z,53.2
2022-12-13T19:10:11.592Z,53.1
2022-12-13T19:15:45.447Z,53.1
2022-12-13T19:21:28.936Z,53.1
2022-12-13T19:27:01.593Z,53.1
2022-12-13T19:32:40.388Z,53
2022-12-13T19:38:09.260Z,52.9
2022-12-13T19:43:52.441Z,52.9
2022-12-13T19:49:31.683Z,52.9
2022-12-13T19:55:10.725Z,52.9
2022-12-13T20:00:49.165Z,52.8
2022-12-13T20:06:02.100Z,52.8
2022-12-13T20:11:40.979Z,52.8
2022-12-13T20:17:11.948Z,52.7
2022-12-13T20:23:21.475Z,52.6
2022-12-13T20:28:33.105Z,52.6
2022-12-13T20:34:12.598Z,52.5
2022-12-13T20:40:13.713Z,52.5
2022-12-13T20:45:52.575Z,52.4
2022-12-13T20:51:05.458Z,52.4
2022-12-13T21:07:48.171Z,52.3
2022-12-13T21:13:10.426Z,52.3
2022-12-13T21:19:00.239Z,52.3
2022-12-13T21:24:45.049Z,52.2
2022-12-13T21:30:27.598Z,52.1
2022-12-13T21:36:05.999Z,52.1
2022-12-13T21:41:47.086Z,52.1
2022-12-13T21:48:16.001Z,52.1
2022-12-13T21:53:55.941Z,52
2022-12-13T22:10:55.986Z,51.9
2022-12-13T22:16:24.546Z,51.8
2022-12-13T22:22:08.449Z,51.8
2022-12-13T22:27:50.221Z,51.8
2022-12-13T22:33:13.135Z,51.7
2022-12-13T22:38:38.118Z,51.7
2022-12-13T22:44:16.398Z,51.6
2022-12-13T22:49:54.293Z,51.6
2022-12-13T22:55:21.253Z,51.6
2022-12-13T23:01:00.265Z,51.5
2022-12-13T23:06:39.191Z,51.5
2022-12-13T23:11:52.994Z,51.4
2022-12-13T23:17:15.599Z,51.4
2022-12-13T23:23:39.601Z,51.4
2022-12-13T23:29:17.445Z,51.3
2022-12-13T23:34:40.193Z,51.3
2022-12-13T23:40:08.689Z,51.3
2022-12-13T23:45:35.118Z,51.2
2022-12-13T23:51:20.984Z,51.1
2022-12-13T23:56:58.409Z,51.1
